createdAt,value
2022-12-08T00:01:10.514Z,95.04
2022-12-08T00:04:55.381Z,95.10
2022-12-08T00:08:55.626Z,95.06
2022-12-08T00:12:36.552Z,95.15
2022-12-08T00:16:01.482Z,95.37
2022-12-08T00:19:55.172Z,94.96
2022-12-08T00:23:17.255Z,94.60
2022-12-08T00:26:54.700Z,94.57
2022-12-08T00:30:51.209Z,94.62
2022-12-08T00:34:15.220Z,94.71
2022-12-08T00:37:52.344Z,94.73
2022-12-08T00:41:48.041Z,94.77
2022-12-08T00:45:29.586Z,94.88
2022-12-08T00:48:51.705Z,94.69
2022-12-08T00:52:48.060Z,94.46
2022-12-08T00:56:10.343Z,94.71
2022-12-08T01:00:07.427Z,94.69
2022-12-08T01:03:48.907Z,94.66
2022-12-08T01:07:29.962Z,94.64
2022-12-08T01:10:52.567Z,94.21
2022-12-08T01:14:29.644Z,93.98
2022-12-08T01:18:27.547Z,94.16
2022-12-08T01:21:49.209Z,94.25
2022-12-08T01:25:27.107Z,94.32
2022-12-08T01:29:23.814Z,94.32
2022-12-08T01:33:04.945Z,94.25
2022-12-08T01:36:29.162Z,94.14
2022-12-08T01:40:23.316Z,93.87
2022-12-08T01:43:56.337Z,93.86
2022-12-08T01:47:46.552Z,93.80
2022-12-08T01:51:28.060Z,93.82
2022-12-08T01:54:56.245Z,94.06
2022-12-08T01:58:38.486Z,94.21
2022-12-08T02:02:05.507Z,94.14
2022-12-08T02:06:03.254Z,93.92
2022-12-08T02:09:25.510Z,93.66
2022-12-08T02:13:06.355Z,93.95
2022-12-08T02:16:47.105Z,93.95
2022-12-08T02:20:30.449Z,94.12
2022-12-08T02:24:26.546Z,94.11
2022-12-08T02:28:04.476Z,94.08
2022-12-08T02:32:12.556Z,93.99
2022-12-08T02:36:04.834Z,93.81
2022-12-08T02:39:55.844Z,93.87
2022-12-08T02:43:37.549Z,93.97
2022-12-08T02:47:34.269Z,94.03
2022-12-08T02:50:56.689Z,93.97
2022-12-08T02:54:36.468Z,93.77
2022-12-08T02:58:40.278Z,93.57
2022-12-08T03:02:12.776Z,93.82
2022-12-08T03:06:00.903Z,93.92
2022-12-08T03:09:50.581Z,94.18
2022-12-08T03:13:15.977Z,94.29
2022-12-08T03:17:10.637Z,94.32
2022-12-08T03:20:35.052Z,94.09
2022-12-08T03:24:34.342Z,94.12
2022-12-08T03:27:56.652Z,93.81
2022-12-08T03:32:06.291Z,93.80
2022-12-08T03:35:47.703Z,94.14
2022-12-08T03:39:09.445Z,94.31
2022-12-08T03:43:06.193Z,94.26
2022-12-08T03:50:24.493Z,94.06
2022-12-08T03:53:47.312Z,93.77
2022-12-08T03:57:43.892Z,93.72
2022-12-08T04:01:05.766Z,94.07
2022-12-08T04:04:44.416Z,93.92
2022-12-08T04:08:21.069Z,93.84
2022-12-08T04:11:58.553Z,93.79
2022-12-08T04:15:36.402Z,93.92
2022-12-08T04:19:13.905Z,94.13
2022-12-08T04:22:51.711Z,94.18
2022-12-08T04:26:49.210Z,94.10
2022-12-08T04:30:11.469Z,94.13
2022-12-08T04:33:48.732Z,94.17
2022-12-08T04:37:27.817Z,94.04
2022-12-08T04:41:22.728Z,94.23
2022-12-08T04:44:44.815Z,94.29
2022-12-08T04:48:22.174Z,94.36
2022-12-08T04:51:59.901Z,94.16
2022-12-08T04:55:43.965Z,94.11
2022-12-08T04:59:34.072Z,93.94
2022-12-08T05:03:16.483Z,93.87
2022-12-08T05:06:38.341Z,93.92
2022-12-08T05:10:15.937Z,93.89
2022-12-08T05:13:53.533Z,94.10
2022-12-08T05:17:50.161Z,94.10
2022-12-08T05:21:12.516Z,93.93
2022-12-08T05:25:08.427Z,93.83
2022-12-08T05:28:45.832Z,93.61
2022-12-08T05:32:08.203Z,93.59
2022-12-08T05:35:45.891Z,93.41
2022-12-08T05:39:23.445Z,93.54
2022-12-08T05:43:01.159Z,93.66
2022-12-08T05:46:38.725Z,93.88
2022-12-08T05:50:35.435Z,93.77
2022-12-08T05:54:00.298Z,93.47
2022-12-08T05:57:36.912Z,93.51
2022-12-08T06:01:28.535Z,93.67
2022-12-08T06:05:11.267Z,93.87
2022-12-08T06:08:33.165Z,93.86
2022-12-08T06:12:29.894Z,93.86
2022-12-08T06:16:10.635Z,93.73
2022-12-08T06:19:51.703Z,93.36
2022-12-08T06:23:13.649Z,93.27
2022-12-08T06:27:10.357Z,93.03
2022-12-08T06:30:50.927Z,93.05
2022-12-08T06:34:12.873Z,93.05
2022-12-08T06:37:51.841Z,93.31
2022-12-08T06:41:28.185Z,93.47
2022-12-08T06:45:06.519Z,93.21
2022-12-08T06:48:43.739Z,93.19
2022-12-08T06:52:21.188Z,93.17
2022-12-08T06:56:00.048Z,93.00
2022-12-08T06:59:36.627Z,92.80
2022-12-08T07:03:14.908Z,92.62
2022-12-08T07:06:51.876Z,92.95
2022-12-08T07:10:48.592Z,93.03
2022-12-08T07:14:29.965Z,93.12
2022-12-08T07:18:11.566Z,93.17
2022-12-08T07:21:52.314Z,93.09
2022-12-08T07:25:14.312Z,93.07
2022-12-08T07:28:51.698Z,93.09
2022-12-08T07:32:48.647Z,93.23
2022-12-08T07:36:10.674Z,93.39
2022-12-08T07:40:08.648Z,93.32
2022-12-08T07:43:49.381Z,93.17
2022-12-08T07:47:30.433Z,93.15
2022-12-08T07:51:00.268Z,93.06
2022-12-08T07:54:49.113Z,93.34
2022-12-08T07:58:11.565Z,93.59
2022-12-08T08:02:25.560Z,93.71
2022-12-08T08:05:50.061Z,93.74
2022-12-08T08:09:45.100Z,93.48
2022-12-08T08:13:07.031Z,93.35
2022-12-08T08:16:47.494Z,93.28
2022-12-08T08:20:22.763Z,93.47
2022-12-08T08:24:00.189Z,93.55
2022-12-08T08:27:56.595Z,93.53
2022-12-08T08:31:24.828Z,93.30
2022-12-08T08:35:16.382Z,93.01
2022-12-08T08:38:42.879Z,92.90
2022-12-08T08:42:34.567Z,92.82
2022-12-08T08:46:00.488Z,92.81
2022-12-08T08:49:34.160Z,93.02
2022-12-08T08:53:11.926Z,92.51
2022-12-08T08:56:49.328Z,92.35
2022-12-08T09:00:27.152Z,92.12
2022-12-08T09:04:04.994Z,92.11
2022-12-08T09:08:01.468Z,92.23
2022-12-08T09:11:23.706Z,92.19
2022-12-08T09:15:20.223Z,91.76
2022-12-08T09:18:42.015Z,90.93
2022-12-08T09:22:38.750Z,90.96
2022-12-08T09:26:01.011Z,90.48
2022-12-08T09:29:38.646Z,90.89
2022-12-08T09:33:17.838Z,90.38
2022-12-08T09:37:12.919Z,90.50
2022-12-08T09:40:54.710Z,90.63
2022-12-08T09:44:43.621Z,90.25
2022-12-08T09:48:38.557Z,89.61
2022-12-08T09:52:31.051Z,89.47
2022-12-08T09:56:22.120Z,89.15
2022-12-08T09:59:51.598Z,89.37
2022-12-08T10:03:28.368Z,89.76
2022-12-08T10:07:27.539Z,89.93
2022-12-08T10:11:04.585Z,89.64
2022-12-08T10:14:38.260Z,89.20
2022-12-08T10:18:28.466Z,89.13
2022-12-08T10:21:51.387Z,89.35
2022-12-08T10:25:57.203Z,89.44
2022-12-08T10:29:39.856Z,89.53
2022-12-08T10:33:01.625Z,89.68
2022-12-08T10:37:00.047Z,89.38
2022-12-08T10:40:45.824Z,89.16
2022-12-08T10:44:09.815Z,88.93
2022-12-08T10:48:19.197Z,88.69
2022-12-08T10:51:43.466Z,88.85
2022-12-08T10:55:43.047Z,88.93
2022-12-08T10:59:19.525Z,89.00
2022-12-08T11:03:03.999Z,88.85
2022-12-08T11:06:46.923Z,88.81
2022-12-08T11:10:17.857Z,88.86
2022-12-08T11:14:15.001Z,88.35
2022-12-08T11:17:39.671Z,88.08
2022-12-08T11:21:18.583Z,88.24
2022-12-08T11:25:26.009Z,88.42
2022-12-08T11:28:48.173Z,88.38
2022-12-08T11:32:50.390Z,88.27
2022-12-08T11:36:34.746Z,87.91
2022-12-08T11:40:32.004Z,87.53
2022-12-08T11:44:18.447Z,87.78
2022-12-08T11:47:52.609Z,87.77
2022-12-08T11:52:21.555Z,87.21
2022-12-08T11:56:12.456Z,86.89
2022-12-08T11:59:56.729Z,86.26
2022-12-08T12:03:43.985Z,86.07
2022-12-08T12:07:08.564Z,85.66
2022-12-08T12:11:02.079Z,85.93
2022-12-08T12:15:12.199Z,85.69
2022-12-08T12:18:46.414Z,85.11
2022-12-08T12:22:36.345Z,84.28
2022-12-08T12:26:20.872Z,84.37
2022-12-08T12:30:06.119Z,84.53
2022-12-08T12:33:49.125Z,83.44
2022-12-08T12:37:41.097Z,83.32
2022-12-08T12:41:28.366Z,83.34
2022-12-08T12:45:12.303Z,83.44
2022-12-08T12:48:35.031Z,83.66
2022-12-08T12:52:15.774Z,83.31
2022-12-08T12:56:11.768Z,83.14
2022-12-08T12:59:55.530Z,82.24
2022-12-08T13:03:18.193Z,82.09
2022-12-08T13:07:24.076Z,82.19
2022-12-08T13:11:09.108Z,82.23
2022-12-08T13:14:51.224Z,82.09
2022-12-08T13:18:41.930Z,81.63
2022-12-08T13:22:04.075Z,81.60
2022-12-08T13:25:44.172Z,81.72
2022-12-08T13:29:38.911Z,81.43
2022-12-08T13:33:18.657Z,81.47
2022-12-08T13:37:13.108Z,80.95
2022-12-08T13:40:37.696Z,81.52
2022-12-08T13:50:05.829Z,81.80
2022-12-08T13:57:06.818Z,82.10
2022-12-08T14:01:02.435Z,82.86
2022-12-08T14:08:59.942Z,83.56
2022-12-08T14:12:34.042Z,83.78
2022-12-08T14:15:56.825Z,84.09
2022-12-08T14:19:35.152Z,84.60
2022-12-08T14:23:34.478Z,85.32
2022-12-08T14:27:01.821Z,85.49
2022-12-08T14:30:55.169Z,85.37
2022-12-08T14:34:17.420Z,85.58
2022-12-08T14:38:16.247Z,86.02
2022-12-08T14:41:39.432Z,86.79
2022-12-08T14:45:46.052Z,86.87
2022-12-08T14:49:32.086Z,86.59
2022-12-08T14:53:17.166Z,86.72
2022-12-08T14:57:01.044Z,87.00
2022-12-08T15:00:23.914Z,87.49
2022-12-08T15:04:22.543Z,87.70
2022-12-08T15:07:47.451Z,87.75
2022-12-08T15:11:41.738Z,87.65
2022-12-08T15:15:23.512Z,87.84
2022-12-08T15:18:45.602Z,88.38
2022-12-08T15:22:42.718Z,88.73
2022-12-08T15:26:26.182Z,89.00
2022-12-08T15:29:48.778Z,88.83
2022-12-08T15:33:27.101Z,88.56
2022-12-08T15:37:04.624Z,88.85
2022-12-08T15:40:41.233Z,89.04
2022-12-08T15:44:38.292Z,89.73
2022-12-08T15:48:00.907Z,89.88
2022-12-08T15:51:37.852Z,89.83
2022-12-08T15:55:38.670Z,89.66
2022-12-08T15:59:01.687Z,89.97
2022-12-08T16:03:22.945Z,90.29
2022-12-08T16:07:21.321Z,90.42
2022-12-08T16:11:56.439Z,90.55
2022-12-08T16:19:22.178Z,90.28
2022-12-08T16:23:26.336Z,90.42
2022-12-08T16:30:46.365Z,90.94
2022-12-08T16:34:43.007Z,91.28
2022-12-08T16:38:24.317Z,91.21
2022-12-08T16:42:23.845Z,90.90
2022-12-08T16:46:05.023Z,90.75
2022-12-08T16:49:27.126Z,91.04
2022-12-08T16:53:23.756Z,91.24
2022-12-08T16:57:04.931Z,91.53
2022-12-08T17:00:50.185Z,91.67
2022-12-08T17:04:32.253Z,91.73
2022-12-08T17:07:55.221Z,91.55
2022-12-08T17:11:51.768Z,91.57
2022-12-08T17:15:32.606Z,91.87
2022-12-08T17:19:14.639Z,92.19
2022-12-08T17:22:36.828Z,92.14
2022-12-08T17:26:14.880Z,92.05
2022-12-08T17:30:14.905Z,92.13
2022-12-08T17:33:58.999Z,92.12
2022-12-08T17:37:39.787Z,92.12
2022-12-08T17:41:20.507Z,92.22
2022-12-08T17:44:42.569Z,92.00
2022-12-08T17:48:20.120Z,91.98
2022-12-08T17:52:16.666Z,92.15
2022-12-08T17:55:40.897Z,92.39
2022-12-08T17:59:16.639Z,92.31
2022-12-08T18:02:54.834Z,92.39
2022-12-08T18:06:51.096Z,92.22
2022-12-08T18:10:13.223Z,91.99
2022-12-08T18:13:52.442Z,92.27
2022-12-08T18:17:47.252Z,92.32
2022-12-08T18:21:28.326Z,92.42
2022-12-08T18:25:11.639Z,92.61
2022-12-08T18:28:34.164Z,92.52
2022-12-08T18:32:11.189Z,92.23
2022-12-08T18:35:48.994Z,92.22
2022-12-08T18:39:45.357Z,92.15
2022-12-08T18:43:26.693Z,92.42
2022-12-08T18:47:07.351Z,92.63
2022-12-08T18:50:48.385Z,93.00
2022-12-08T18:54:11.892Z,92.97
2022-12-08T18:57:48.593Z,92.77
2022-12-08T19:01:25.769Z,92.62
2022-12-08T19:05:22.436Z,92.57
2022-12-08T19:09:06.360Z,92.79
2022-12-08T19:12:50.245Z,93.04
2022-12-08T19:16:13.118Z,93.14
2022-12-08T19:20:09.982Z,92.94
2022-12-08T19:23:32.199Z,92.73
2022-12-08T19:27:09.716Z,92.78
2022-12-08T19:30:47.330Z,93.10
2022-12-08T19:34:27.872Z,93.14
2022-12-08T19:38:03.078Z,93.08
2022-12-08T19:42:17.820Z,93.03
2022-12-08T19:45:39.953Z,92.80
2022-12-08T19:49:17.709Z,92.95
2022-12-08T19:53:14.845Z,93.29
2022-12-08T19:56:36.948Z,93.30
2022-12-08T20:00:14.904Z,93.27
2022-12-08T20:03:52.189Z,93.19
2022-12-08T20:07:49.153Z,93.05
2022-12-08T20:11:10.727Z,93.16
2022-12-08T20:15:09.719Z,93.21
2022-12-08T20:18:50.323Z,93.37
2022-12-08T20:22:12.167Z,93.15
2022-12-08T20:25:49.952Z,92.87
2022-12-08T20:29:27.517Z,92.96
2022-12-08T20:33:05.626Z,93.07
2022-12-08T20:37:01.998Z,92.92
2022-12-08T20:40:43.486Z,93.17
2022-12-08T20:44:24.073Z,93.37
2022-12-08T20:48:05.404Z,93.15
2022-12-08T20:51:31.898Z,92.80
2022-12-08T20:55:26.677Z,92.62
2022-12-08T20:59:07.855Z,92.76
2022-12-08T21:02:33.292Z,92.97
2022-12-08T21:06:27.065Z,93.24
2022-12-08T21:09:47.490Z,92.94
2022-12-08T21:13:26.148Z,92.88
2022-12-08T21:17:22.590Z,92.66
2022-12-08T21:20:45.508Z,92.83
2022-12-08T21:24:41.766Z,92.91
2022-12-08T21:28:06.220Z,92.92
2022-12-08T21:31:41.295Z,93.09
2022-12-08T21:35:18.959Z,93.00
2022-12-08T21:38:58.289Z,92.75
2022-12-08T21:42:46.358Z,92.71
2022-12-08T21:46:31.261Z,92.82
2022-12-08T21:49:53.359Z,92.73
2022-12-08T21:53:31.099Z,92.91
2022-12-08T21:57:27.865Z,92.64
2022-12-08T22:00:50.133Z,92.42
2022-12-08T22:04:47.422Z,92.47
2022-12-08T22:08:12.856Z,92.39
2022-12-08T22:12:06.048Z,92.56
2022-12-08T22:15:58.881Z,92.81
2022-12-08T22:19:20.912Z,92.85
2022-12-08T22:22:58.611Z,92.55
2022-12-08T22:26:36.169Z,92.45
2022-12-08T22:30:14.122Z,92.39
2022-12-08T22:33:51.783Z,92.28
2022-12-08T22:37:29.365Z,92.55
2022-12-08T22:41:07.077Z,92.22
2022-12-08T22:45:04.026Z,92.13
2022-12-08T22:48:26.288Z,92.00
2022-12-08T22:52:22.845Z,92.20
2022-12-08T22:56:05.115Z,92.33
2022-12-08T22:59:30.335Z,92.53
2022-12-08T23:03:23.750Z,92.46
2022-12-08T23:06:45.833Z,92.39
2022-12-08T23:10:44.729Z,92.03
2022-12-08T23:14:25.320Z,92.21
2022-12-08T23:17:47.637Z,92.10
2022-12-08T23:21:25.437Z,92.45
2022-12-08T23:25:21.705Z,92.24
2022-12-08T23:28:43.841Z,92.35
2022-12-08T23:32:21.744Z,92.01
2022-12-08T23:35:59.226Z,91.83
2022-12-08T23:39:55.695Z,91.82
2022-12-08T23:43:17.690Z,91.92
2022-12-08T23:46:55.396Z,92.07
2022-12-08T23:50:52.716Z,92.21
2022-12-08T23:54:15.037Z,91.91
2022-12-08T23:57:52.361Z,91.87
